Fountain Hill, North Carolina
Current Conditions -  °F | °C
As of 6:55 PM on Wednesday 22 Oct 2014 (Local Time) from KAFP Reporting Station
Clear Clear  
Wind Chill: 61°   Ceiling: Unl
Heat Index: 61°   Visibility: 10mi
Dew Point: 39°   Wind: 10mph
Humidity: 45%   Direction: 320°NW
Pressure: 30.03"   Gusts: NA
Location:  34.9529°N, 80.2682°W
Report Text: KAFP 222255Z AUTO 32009KT 10SM CLR 16/04 A3003 RMK AO2 T01600040
Loading
Personal Weather Stations






























Interactive Weather Map
Tropical Storm Tracking
New forecast layout! Learn more

10-Day Weather Forecast

Advertisements
Track Severe Weather on mobile